sensor_id;sensor_type;location;lat;lon;timestamp;P1;durP1;ratioP1;P2;durP2;ratioP2
69534;SDS011;56754;51.568;5.048;2024-03-07T00:01:56;25.80;;;14.00;;
69534;SDS011;56754;51.568;5.048;2024-03-07T00:04:22;25.60;;;13.73;;
69534;SDS011;56754;51.568;5.048;2024-03-07T00:06:47;23.50;;;13.45;;
69534;SDS011;56754;51.568;5.048;2024-03-07T00:09:12;24.50;;;13.87;;
69534;SDS011;56754;51.568;5.048;2024-03-07T00:11:37;22.37;;;12.80;;
69534;SDS011;56754;51.568;5.048;2024-03-07T00:14:03;26.17;;;14.00;;
69534;SDS011;56754;51.568;5.048;2024-03-07T00:16:28;26.43;;;14.77;;
69534;SDS011;56754;51.568;5.048;2024-03-07T00:18:53;25.17;;;13.80;;
69534;SDS011;56754;51.568;5.048;2024-03-07T00:21:19;25.97;;;14.70;;
69534;SDS011;56754;51.568;5.048;2024-03-07T00:23:44;24.33;;;13.97;;
69534;SDS011;56754;51.568;5.048;2024-03-07T00:26:09;25.30;;;14.03;;
69534;SDS011;56754;51.568;5.048;2024-03-07T00:28:34;26.00;;;15.02;;
69534;SDS011;56754;51.568;5.048;2024-03-07T00:31:00;24.97;;;14.50;;
69534;SDS011;56754;51.568;5.048;2024-03-07T00:33:25;24.73;;;14.27;;
69534;SDS011;56754;51.568;5.048;2024-03-07T00:35:50;25.63;;;14.97;;
69534;SDS011;56754;51.568;5.048;2024-03-07T00:38:16;26.07;;;13.80;;
69534;SDS011;56754;51.568;5.048;2024-03-07T00:40:41;25.30;;;14.40;;
69534;SDS011;56754;51.568;5.048;2024-03-07T00:43:06;24.93;;;14.27;;
69534;SDS011;56754;51.568;5.048;2024-03-07T00:45:32;25.77;;;14.35;;
69534;SDS011;56754;51.568;5.048;2024-03-07T00:47:57;30.03;;;14.67;;
69534;SDS011;56754;51.568;5.048;2024-03-07T00:50:28;26.25;;;14.15;;
69534;SDS011;56754;51.568;5.048;2024-03-07T00:52:54;27.60;;;15.00;;
69534;SDS011;56754;51.568;5.048;2024-03-07T00:55:19;24.33;;;13.83;;
69534;SDS011;56754;51.568;5.048;2024-03-07T00:57:44;26.63;;;15.07;;
69534;SDS011;56754;51.568;5.048;2024-03-07T01:00:10;26.33;;;14.80;;
69534;SDS011;56754;51.568;5.048;2024-03-07T01:02:35;27.73;;;14.65;;
69534;SDS011;56754;51.568;5.048;2024-03-07T01:05:01;26.50;;;14.13;;
69534;SDS011;56754;51.568;5.048;2024-03-07T01:07:26;26.07;;;14.87;;
69534;SDS011;56754;51.568;5.048;2024-03-07T01:09:51;26.73;;;14.17;;
69534;SDS011;56754;51.568;5.048;2024-03-07T01:12:17;25.80;;;14.40;;
69534;SDS011;56754;51.568;5.048;2024-03-07T01:14:42;26.73;;;14.50;;
69534;SDS011;56754;51.568;5.048;2024-03-07T01:17:07;26.17;;;14.40;;
69534;SDS011;56754;51.568;5.048;2024-03-07T01:19:33;28.33;;;15.53;;
69534;SDS011;56754;51.568;5.048;2024-03-07T01:21:58;26.10;;;14.97;;
69534;SDS011;56754;51.568;5.048;2024-03-07T01:24:23;27.23;;;15.07;;
69534;SDS011;56754;51.568;5.048;2024-03-07T01:26:49;26.57;;;14.67;;
69534;SDS011;56754;51.568;5.048;2024-03-07T01:29:14;25.80;;;14.32;;
69534;SDS011;56754;51.568;5.048;2024-03-07T01:31:39;29.57;;;15.20;;
69534;SDS011;56754;51.568;5.048;2024-03-07T01:34:05;28.43;;;14.93;;
69534;SDS011;56754;51.568;5.048;2024-03-07T01:36:30;27.87;;;15.23;;
69534;SDS011;56754;51.568;5.048;2024-03-07T01:38:56;26.87;;;14.43;;
69534;SDS011;56754;51.568;5.048;2024-03-07T01:41:22;26.33;;;14.50;;
69534;SDS011;56754;51.568;5.048;2024-03-07T01:43:49;28.10;;;14.90;;
69534;SDS011;56754;51.568;5.048;2024-03-07T01:46:14;25.48;;;14.80;;
69534;SDS011;56754;51.568;5.048;2024-03-07T01:48:40;30.42;;;16.38;;
69534;SDS011;56754;51.568;5.048;2024-03-07T01:51:06;27.30;;;14.97;;
69534;SDS011;56754;51.568;5.048;2024-03-07T01:53:31;29.30;;;15.30;;
69534;SDS011;56754;51.568;5.048;2024-03-07T01:55:59;27.65;;;14.77;;
69534;SDS011;56754;51.568;5.048;2024-03-07T01:58:25;28.00;;;15.23;;
69534;SDS011;56754;51.568;5.048;2024-03-07T02:00:50;27.13;;;14.85;;
69534;SDS011;56754;51.568;5.048;2024-03-07T02:03:16;27.77;;;14.60;;
69534;SDS011;56754;51.568;5.048;2024-03-07T02:05:42;28.40;;;14.93;;
69534;SDS011;56754;51.568;5.048;2024-03-07T02:08:13;30.98;;;15.93;;
69534;SDS011;56754;51.568;5.048;2024-03-07T02:10:38;26.30;;;14.47;;
69534;SDS011;56754;51.568;5.048;2024-03-07T02:13:04;27.50;;;14.73;;
69534;SDS011;56754;51.568;5.048;2024-03-07T02:15:29;29.20;;;15.98;;
69534;SDS011;56754;51.568;5.048;2024-03-07T02:17:54;29.87;;;14.83;;
69534;SDS011;56754;51.568;5.048;2024-03-07T02:20:20;28.07;;;14.53;;
69534;SDS011;56754;51.568;5.048;2024-03-07T02:22:45;26.17;;;14.53;;
69534;SDS011;56754;51.568;5.048;2024-03-07T02:25:10;26.50;;;14.32;;
69534;SDS011;56754;51.568;5.048;2024-03-07T02:27:36;30.33;;;15.30;;
69534;SDS011;56754;51.568;5.048;2024-03-07T02:30:02;28.90;;;15.00;;
69534;SDS011;56754;51.568;5.048;2024-03-07T02:32:29;28.03;;;15.10;;
69534;SDS011;56754;51.568;5.048;2024-03-07T02:34:54;29.47;;;15.43;;
69534;SDS011;56754;51.568;5.048;2024-03-07T02:37:20;27.30;;;14.73;;
69534;SDS011;56754;51.568;5.048;2024-03-07T02:39:45;30.87;;;16.40;;
69534;SDS011;56754;51.568;5.048;2024-03-07T02:42:11;29.10;;;16.00;;
69534;SDS011;56754;51.568;5.048;2024-03-07T02:44:36;28.63;;;15.77;;
69534;SDS011;56754;51.568;5.048;2024-03-07T02:47:02;30.40;;;15.85;;
69534;SDS011;56754;51.568;5.048;2024-03-07T02:49:28;29.17;;;15.53;;
69534;SDS011;56754;51.568;5.048;2024-03-07T02:51:53;29.25;;;15.15;;
69534;SDS011;56754;51.568;5.048;2024-03-07T02:54:18;30.33;;;16.50;;
69534;SDS011;56754;51.568;5.048;2024-03-07T02:56:44;30.23;;;15.63;;
69534;SDS011;56754;51.568;5.048;2024-03-07T02:59:09;31.90;;;16.33;;
69534;SDS011;56754;51.568;5.048;2024-03-07T03:01:34;30.60;;;15.10;;
69534;SDS011;56754;51.568;5.048;2024-03-07T03:04:00;29.67;;;14.97;;
69534;SDS011;56754;51.568;5.048;2024-03-07T03:06:25;29.57;;;15.83;;
69534;SDS011;56754;51.568;5.048;2024-03-07T03:08:50;31.23;;;16.40;;
69534;SDS011;56754;51.568;5.048;2024-03-07T03:11:15;29.40;;;15.23;;
69534;SDS011;56754;51.568;5.048;2024-03-07T03:13:41;30.88;;;15.82;;
69534;SDS011;56754;51.568;5.048;2024-03-07T03:16:06;29.53;;;15.83;;
69534;SDS011;56754;51.568;5.048;2024-03-07T03:18:31;30.23;;;16.53;;
69534;SDS011;56754;51.568;5.048;2024-03-07T03:21:02;30.17;;;16.02;;
69534;SDS011;56754;51.568;5.048;2024-03-07T03:23:28;31.98;;;16.05;;
69534;SDS011;56754;51.568;5.048;2024-03-07T03:25:54;32.33;;;16.10;;
69534;SDS011;56754;51.568;5.048;2024-03-07T03:28:19;30.63;;;16.35;;
69534;SDS011;56754;51.568;5.048;2024-03-07T03:30:45;33.20;;;15.80;;
69534;SDS011;56754;51.568;5.048;2024-03-07T03:33:10;30.47;;;16.10;;
69534;SDS011;56754;51.568;5.048;2024-03-07T03:35:36;32.47;;;17.33;;
69534;SDS011;56754;51.568;5.048;2024-03-07T03:38:02;32.50;;;16.40;;
69534;SDS011;56754;51.568;5.048;2024-03-07T03:40:28;31.90;;;15.93;;
69534;SDS011;56754;51.568;5.048;2024-03-07T03:42:53;32.20;;;16.57;;
69534;SDS011;56754;51.568;5.048;2024-03-07T03:45:19;31.27;;;16.87;;
69534;SDS011;56754;51.568;5.048;2024-03-07T03:47:44;32.10;;;16.63;;
69534;SDS011;56754;51.568;5.048;2024-03-07T03:50:11;29.63;;;16.87;;
69534;SDS011;56754;51.568;5.048;2024-03-07T03:52:37;35.17;;;16.58;;
69534;SDS011;56754;51.568;5.048;2024-03-07T03:55:03;32.67;;;16.93;;
69534;SDS011;56754;51.568;5.048;2024-03-07T03:57:29;31.00;;;15.57;;
69534;SDS011;56754;51.568;5.048;2024-03-07T03:59:54;30.90;;;16.13;;
69534;SDS011;56754;51.568;5.048;2024-03-07T04:02:20;33.13;;;16.48;;
69534;SDS011;56754;51.568;5.048;2024-03-07T04:04:52;31.67;;;16.45;;
69534;SDS011;56754;51.568;5.048;2024-03-07T04:07:18;33.00;;;16.83;;
69534;SDS011;56754;51.568;5.048;2024-03-07T04:09:44;31.02;;;15.60;;
69534;SDS011;56754;51.568;5.048;2024-03-07T04:12:10;31.15;;;16.50;;
69534;SDS011;56754;51.568;5.048;2024-03-07T04:14:39;30.23;;;16.55;;
69534;SDS011;56754;51.568;5.048;2024-03-07T04:17:05;30.50;;;16.37;;
69534;SDS011;56754;51.568;5.048;2024-03-07T04:19:30;32.72;;;16.67;;
69534;SDS011;56754;51.568;5.048;2024-03-07T04:21:55;32.47;;;16.63;;
69534;SDS011;56754;51.568;5.048;2024-03-07T04:24:21;31.70;;;15.80;;
69534;SDS011;56754;51.568;5.048;2024-03-07T04:26:46;32.07;;;16.73;;
69534;SDS011;56754;51.568;5.048;2024-03-07T04:29:11;30.43;;;16.57;;
69534;SDS011;56754;51.568;5.048;2024-03-07T04:31:36;34.07;;;16.77;;
69534;SDS011;56754;51.568;5.048;2024-03-07T04:34:02;29.48;;;15.35;;
69534;SDS011;56754;51.568;5.048;2024-03-07T04:36:28;31.77;;;16.00;;
69534;SDS011;56754;51.568;5.048;2024-03-07T04:38:53;33.40;;;18.00;;
69534;SDS011;56754;51.568;5.048;2024-03-07T04:41:18;30.30;;;16.03;;
69534;SDS011;56754;51.568;5.048;2024-03-07T04:43:44;32.93;;;17.47;;
69534;SDS011;56754;51.568;5.048;2024-03-07T04:46:09;32.60;;;17.27;;
69534;SDS011;56754;51.568;5.048;2024-03-07T04:48:34;30.37;;;15.93;;
69534;SDS011;56754;51.568;5.048;2024-03-07T04:51:00;34.87;;;17.17;;
69534;SDS011;56754;51.568;5.048;2024-03-07T04:53:25;31.07;;;16.30;;
69534;SDS011;56754;51.568;5.048;2024-03-07T04:55:50;33.77;;;17.13;;
69534;SDS011;56754;51.568;5.048;2024-03-07T04:58:16;31.17;;;15.47;;
69534;SDS011;56754;51.568;5.048;2024-03-07T05:00:41;33.00;;;17.00;;
69534;SDS011;56754;51.568;5.048;2024-03-07T05:03:07;32.27;;;16.80;;
69534;SDS011;56754;51.568;5.048;2024-03-07T05:05:32;28.73;;;15.17;;
69534;SDS011;56754;51.568;5.048;2024-03-07T05:07:57;31.07;;;16.30;;
69534;SDS011;56754;51.568;5.048;2024-03-07T05:10:22;32.10;;;17.03;;
69534;SDS011;56754;51.568;5.048;2024-03-07T05:12:48;33.28;;;16.30;;
69534;SDS011;56754;51.568;5.048;2024-03-07T05:15:14;32.13;;;16.40;;
69534;SDS011;56754;51.568;5.048;2024-03-07T05:17:39;31.47;;;17.30;;
69534;SDS011;56754;51.568;5.048;2024-03-07T05:20:08;32.60;;;17.03;;
69534;SDS011;56754;51.568;5.048;2024-03-07T05:22:33;31.40;;;17.60;;
69534;SDS011;56754;51.568;5.048;2024-03-07T05:24:59;29.53;;;16.10;;
69534;SDS011;56754;51.568;5.048;2024-03-07T05:27:24;30.87;;;17.10;;
69534;SDS011;56754;51.568;5.048;2024-03-07T05:29:49;29.63;;;15.90;;
69534;SDS011;56754;51.568;5.048;2024-03-07T05:32:21;33.60;;;17.70;;
69534;SDS011;56754;51.568;5.048;2024-03-07T05:34:47;32.00;;;16.58;;
69534;SDS011;56754;51.568;5.048;2024-03-07T05:37:12;32.20;;;15.97;;
69534;SDS011;56754;51.568;5.048;2024-03-07T05:39:38;33.27;;;17.23;;
69534;SDS011;56754;51.568;5.048;2024-03-07T05:42:03;30.70;;;17.37;;
69534;SDS011;56754;51.568;5.048;2024-03-07T05:44:28;35.73;;;18.40;;
69534;SDS011;56754;51.568;5.048;2024-03-07T05:46:54;32.53;;;17.07;;
69534;SDS011;56754;51.568;5.048;2024-03-07T05:49:19;31.83;;;17.08;;
69534;SDS011;56754;51.568;5.048;2024-03-07T05:51:44;36.60;;;17.43;;
69534;SDS011;56754;51.568;5.048;2024-03-07T06:11:55;31.25;;;15.82;;
69534;SDS011;56754;51.568;5.048;2024-03-07T06:14:20;32.53;;;16.33;;
69534;SDS011;56754;51.568;5.048;2024-03-07T06:16:46;36.27;;;18.47;;
69534;SDS011;56754;51.568;5.048;2024-03-07T06:19:11;33.67;;;17.83;;
69534;SDS011;56754;51.568;5.048;2024-03-07T06:21:37;32.57;;;17.20;;
69534;SDS011;56754;51.568;5.048;2024-03-07T06:24:06;32.00;;;17.00;;
69534;SDS011;56754;51.568;5.048;2024-03-07T06:26:32;32.65;;;16.73;;
69534;SDS011;56754;51.568;5.048;2024-03-07T06:28:58;30.85;;;17.45;;
69534;SDS011;56754;51.568;5.048;2024-03-07T06:31:24;30.83;;;16.90;;
69534;SDS011;56754;51.568;5.048;2024-03-07T06:33:49;31.07;;;16.73;;
69534;SDS011;56754;51.568;5.048;2024-03-07T06:36:14;32.07;;;17.13;;
69534;SDS011;56754;51.568;5.048;2024-03-07T06:38:40;32.10;;;16.93;;
69534;SDS011;56754;51.568;5.048;2024-03-07T06:41:05;33.60;;;16.77;;
69534;SDS011;56754;51.568;5.048;2024-03-07T06:43:30;31.58;;;16.58;;
69534;SDS011;56754;51.568;5.048;2024-03-07T06:45:55;36.13;;;17.87;;
69534;SDS011;56754;51.568;5.048;2024-03-07T06:48:21;33.67;;;17.30;;
69534;SDS011;56754;51.568;5.048;2024-03-07T06:50:46;33.80;;;17.27;;
69534;SDS011;56754;51.568;5.048;2024-03-07T06:53:11;31.77;;;17.23;;
69534;SDS011;56754;51.568;5.048;2024-03-07T06:55:37;32.67;;;18.13;;
69534;SDS011;56754;51.568;5.048;2024-03-07T06:58:02;32.53;;;17.40;;
69534;SDS011;56754;51.568;5.048;2024-03-07T07:00:27;33.30;;;16.97;;
69534;SDS011;56754;51.568;5.048;2024-03-07T07:02:53;33.37;;;18.53;;
69534;SDS011;56754;51.568;5.048;2024-03-07T07:05:18;34.53;;;17.33;;
69534;SDS011;56754;51.568;5.048;2024-03-07T07:07:44;31.33;;;16.83;;
69534;SDS011;56754;51.568;5.048;2024-03-07T07:10:10;32.67;;;17.85;;
69534;SDS011;56754;51.568;5.048;2024-03-07T07:12:37;33.15;;;17.25;;
69534;SDS011;56754;51.568;5.048;2024-03-07T07:15:03;31.70;;;17.23;;
69534;SDS011;56754;51.568;5.048;2024-03-07T07:17:29;30.30;;;16.83;;
69534;SDS011;56754;51.568;5.048;2024-03-07T07:19:56;34.55;;;17.85;;
69534;SDS011;56754;51.568;5.048;2024-03-07T07:25:12;33.72;;;17.83;;
69534;SDS011;56754;51.568;5.048;2024-03-07T07:27:43;34.60;;;18.37;;
69534;SDS011;56754;51.568;5.048;2024-03-07T07:30:12;32.35;;;17.42;;
69534;SDS011;56754;51.568;5.048;2024-03-07T07:32:39;33.15;;;17.83;;
69534;SDS011;56754;51.568;5.048;2024-03-07T07:35:05;35.58;;;18.17;;
69534;SDS011;56754;51.568;5.048;2024-03-07T07:37:31;35.33;;;19.15;;
69534;SDS011;56754;51.568;5.048;2024-03-07T07:39:58;33.07;;;17.20;;
69534;SDS011;56754;51.568;5.048;2024-03-07T07:42:23;34.55;;;18.52;;
69534;SDS011;56754;51.568;5.048;2024-03-07T07:44:48;34.07;;;17.67;;
69534;SDS011;56754;51.568;5.048;2024-03-07T07:47:13;29.03;;;15.93;;
69534;SDS011;56754;51.568;5.048;2024-03-07T07:49:39;32.67;;;17.10;;
69534;SDS011;56754;51.568;5.048;2024-03-07T07:52:05;31.23;;;16.00;;
69534;SDS011;56754;51.568;5.048;2024-03-07T07:54:30;33.30;;;17.35;;
69534;SDS011;56754;51.568;5.048;2024-03-07T07:56:56;35.10;;;18.00;;
69534;SDS011;56754;51.568;5.048;2024-03-07T07:59:23;34.10;;;18.13;;
69534;SDS011;56754;51.568;5.048;2024-03-07T08:01:48;32.67;;;17.53;;
69534;SDS011;56754;51.568;5.048;2024-03-07T08:04:13;32.60;;;18.03;;
69534;SDS011;56754;51.568;5.048;2024-03-07T08:06:39;34.95;;;18.10;;
69534;SDS011;56754;51.568;5.048;2024-03-07T08:09:04;37.07;;;18.27;;
69534;SDS011;56754;51.568;5.048;2024-03-07T08:11:29;34.80;;;17.47;;
69534;SDS011;56754;51.568;5.048;2024-03-07T08:13:54;31.87;;;16.87;;
69534;SDS011;56754;51.568;5.048;2024-03-07T08:16:20;34.30;;;17.40;;
69534;SDS011;56754;51.568;5.048;2024-03-07T08:18:45;33.10;;;17.27;;
69534;SDS011;56754;51.568;5.048;2024-03-07T08:21:10;32.20;;;17.23;;
69534;SDS011;56754;51.568;5.048;2024-03-07T08:23:36;31.10;;;16.10;;
69534;SDS011;56754;51.568;5.048;2024-03-07T08:26:02;29.73;;;16.50;;
69534;SDS011;56754;51.568;5.048;2024-03-07T08:28:28;31.73;;;17.30;;
69534;SDS011;56754;51.568;5.048;2024-03-07T08:30:53;35.13;;;17.90;;
69534;SDS011;56754;51.568;5.048;2024-03-07T08:33:18;33.20;;;17.47;;
69534;SDS011;56754;51.568;5.048;2024-03-07T08:35:44;31.83;;;17.27;;
69534;SDS011;56754;51.568;5.048;2024-03-07T08:38:09;31.07;;;16.83;;
69534;SDS011;56754;51.568;5.048;2024-03-07T08:40:34;31.07;;;15.27;;
69534;SDS011;56754;51.568;5.048;2024-03-07T08:43:00;26.23;;;15.27;;
69534;SDS011;56754;51.568;5.048;2024-03-07T08:45:26;28.33;;;14.88;;
69534;SDS011;56754;51.568;5.048;2024-03-07T08:47:52;27.50;;;15.90;;
69534;SDS011;56754;51.568;5.048;2024-03-07T08:50:19;28.50;;;16.02;;
69534;SDS011;56754;51.568;5.048;2024-03-07T08:52:45;31.33;;;15.33;;
69534;SDS011;56754;51.568;5.048;2024-03-07T08:55:19;27.10;;;15.15;;
69534;SDS011;56754;51.568;5.048;2024-03-07T08:57:45;26.48;;;14.77;;
69534;SDS011;56754;51.568;5.048;2024-03-07T09:00:11;26.23;;;14.43;;
69534;SDS011;56754;51.568;5.048;2024-03-07T09:02:40;25.23;;;14.30;;
69534;SDS011;56754;51.568;5.048;2024-03-07T09:05:06;24.60;;;13.33;;
69534;SDS011;56754;51.568;5.048;2024-03-07T09:07:31;27.42;;;14.77;;
69534;SDS011;56754;51.568;5.048;2024-03-07T09:09:57;25.90;;;14.53;;
69534;SDS011;56754;51.568;5.048;2024-03-07T09:12:23;25.33;;;14.43;;
69534;SDS011;56754;51.568;5.048;2024-03-07T09:14:48;28.80;;;14.73;;
69534;SDS011;56754;51.568;5.048;2024-03-07T09:17:14;27.83;;;14.45;;
69534;SDS011;56754;51.568;5.048;2024-03-07T09:19:39;26.33;;;14.17;;
69534;SDS011;56754;51.568;5.048;2024-03-07T09:22:06;25.93;;;14.23;;
69534;SDS011;56754;51.568;5.048;2024-03-07T09:24:38;27.88;;;14.95;;
69534;SDS011;56754;51.568;5.048;2024-03-07T09:27:04;22.33;;;12.87;;
69534;SDS011;56754;51.568;5.048;2024-03-07T09:29:29;26.67;;;14.90;;
69534;SDS011;56754;51.568;5.048;2024-03-07T09:31:54;23.47;;;12.60;;
69534;SDS011;56754;51.568;5.048;2024-03-07T09:34:20;24.07;;;14.37;;
69534;SDS011;56754;51.568;5.048;2024-03-07T09:36:46;23.52;;;13.70;;
69534;SDS011;56754;51.568;5.048;2024-03-07T09:39:15;25.48;;;13.43;;
69534;SDS011;56754;51.568;5.048;2024-03-07T09:41:40;22.08;;;12.70;;
69534;SDS011;56754;51.568;5.048;2024-03-07T09:44:06;24.87;;;13.70;;
69534;SDS011;56754;51.568;5.048;2024-03-07T09:46:34;23.33;;;13.52;;
69534;SDS011;56754;51.568;5.048;2024-03-07T09:49:00;24.13;;;13.35;;
69534;SDS011;56754;51.568;5.048;2024-03-07T09:51:25;23.03;;;12.93;;
69534;SDS011;56754;51.568;5.048;2024-03-07T09:53:53;21.25;;;12.32;;
69534;SDS011;56754;51.568;5.048;2024-03-07T09:56:21;23.40;;;13.70;;
69534;SDS011;56754;51.568;5.048;2024-03-07T09:58:48;23.92;;;13.20;;
69534;SDS011;56754;51.568;5.048;2024-03-07T10:01:20;23.05;;;13.05;;
69534;SDS011;56754;51.568;5.048;2024-03-07T10:03:47;24.50;;;12.82;;
69534;SDS011;56754;51.568;5.048;2024-03-07T10:06:14;25.47;;;12.90;;
69534;SDS011;56754;51.568;5.048;2024-03-07T10:08:40;24.02;;;11.77;;
69534;SDS011;56754;51.568;5.048;2024-03-07T10:11:07;22.83;;;12.13;;
69534;SDS011;56754;51.568;5.048;2024-03-07T10:13:32;21.37;;;11.60;;
69534;SDS011;56754;51.568;5.048;2024-03-07T10:15:58;22.97;;;12.80;;
69534;SDS011;56754;51.568;5.048;2024-03-07T10:18:23;20.53;;;11.60;;
69534;SDS011;56754;51.568;5.048;2024-03-07T10:20:49;18.57;;;11.07;;
69534;SDS011;56754;51.568;5.048;2024-03-07T10:23:20;19.50;;;11.10;;
69534;SDS011;56754;51.568;5.048;2024-03-07T10:25:46;19.43;;;12.10;;
69534;SDS011;56754;51.568;5.048;2024-03-07T10:28:11;20.65;;;11.73;;
69534;SDS011;56754;51.568;5.048;2024-03-07T10:30:40;20.50;;;11.23;;
69534;SDS011;56754;51.568;5.048;2024-03-07T10:33:06;19.73;;;10.77;;
69534;SDS011;56754;51.568;5.048;2024-03-07T10:35:32;19.93;;;10.97;;
69534;SDS011;56754;51.568;5.048;2024-03-07T10:37:57;19.30;;;11.13;;
69534;SDS011;56754;51.568;5.048;2024-03-07T10:40:23;19.23;;;11.73;;
69534;SDS011;56754;51.568;5.048;2024-03-07T10:42:48;18.07;;;10.77;;
69534;SDS011;56754;51.568;5.048;2024-03-07T10:45:14;18.88;;;10.55;;
69534;SDS011;56754;51.568;5.048;2024-03-07T10:47:43;17.92;;;10.10;;
69534;SDS011;56754;51.568;5.048;2024-03-07T10:50:13;18.77;;;11.07;;
69534;SDS011;56754;51.568;5.048;2024-03-07T10:52:58;21.48;;;10.80;;
69534;SDS011;56754;51.568;5.048;2024-03-07T10:55:33;16.42;;;9.70;;
69534;SDS011;56754;51.568;5.048;2024-03-07T10:58:04;17.23;;;10.57;;
69534;SDS011;56754;51.568;5.048;2024-03-07T11:00:39;18.30;;;10.85;;
69534;SDS011;56754;51.568;5.048;2024-03-07T11:03:07;20.40;;;11.43;;
69534;SDS011;56754;51.568;5.048;2024-03-07T11:05:32;18.37;;;10.63;;
69534;SDS011;56754;51.568;5.048;2024-03-07T11:07:58;20.20;;;11.23;;
69534;SDS011;56754;51.568;5.048;2024-03-07T11:10:25;20.23;;;11.15;;
69534;SDS011;56754;51.568;5.048;2024-03-07T11:12:55;20.88;;;11.50;;
69534;SDS011;56754;51.568;5.048;2024-03-07T11:15:22;19.35;;;11.73;;
69534;SDS011;56754;51.568;5.048;2024-03-07T11:17:49;21.13;;;12.00;;
69534;SDS011;56754;51.568;5.048;2024-03-07T11:20:19;18.03;;;10.20;;
69534;SDS011;56754;51.568;5.048;2024-03-07T11:22:44;17.50;;;10.18;;
69534;SDS011;56754;51.568;5.048;2024-03-07T11:25:09;22.33;;;12.10;;
69534;SDS011;56754;51.568;5.048;2024-03-07T11:27:38;17.20;;;10.07;;
69534;SDS011;56754;51.568;5.048;2024-03-07T11:30:05;19.80;;;10.85;;
69534;SDS011;56754;51.568;5.048;2024-03-07T11:32:34;19.35;;;11.45;;
69534;SDS011;56754;51.568;5.048;2024-03-07T11:35:03;18.88;;;11.10;;
69534;SDS011;56754;51.568;5.048;2024-03-07T11:37:45;18.02;;;10.90;;
69534;SDS011;56754;51.568;5.048;2024-03-07T11:40:11;19.73;;;11.60;;
69534;SDS011;56754;51.568;5.048;2024-03-07T11:42:36;16.88;;;10.60;;
69534;SDS011;56754;51.568;5.048;2024-03-07T11:45:02;17.30;;;9.80;;
69534;SDS011;56754;51.568;5.048;2024-03-07T11:47:34;16.88;;;9.95;;
69534;SDS011;56754;51.568;5.048;2024-03-07T11:50:01;19.80;;;11.50;;
69534;SDS011;56754;51.568;5.048;2024-03-07T11:52:28;19.40;;;11.27;;
69534;SDS011;56754;51.568;5.048;2024-03-07T11:54:54;18.08;;;10.95;;
69534;SDS011;56754;51.568;5.048;2024-03-07T11:57:19;19.40;;;11.27;;
69534;SDS011;56754;51.568;5.048;2024-03-07T11:59:45;21.30;;;11.60;;
69534;SDS011;56754;51.568;5.048;2024-03-07T12:02:15;21.30;;;12.45;;
69534;SDS011;56754;51.568;5.048;2024-03-07T12:04:43;17.80;;;11.18;;
69534;SDS011;56754;51.568;5.048;2024-03-07T12:07:09;17.10;;;10.47;;
69534;SDS011;56754;51.568;5.048;2024-03-07T12:09:35;18.85;;;11.95;;
69534;SDS011;56754;51.568;5.048;2024-03-07T12:12:01;22.35;;;12.55;;
69534;SDS011;56754;51.568;5.048;2024-03-07T12:14:28;18.98;;;11.27;;
69534;SDS011;56754;51.568;5.048;2024-03-07T12:16:53;20.73;;;12.47;;
69534;SDS011;56754;51.568;5.048;2024-03-07T12:19:18;22.07;;;12.23;;
69534;SDS011;56754;51.568;5.048;2024-03-07T12:21:44;18.33;;;11.00;;
69534;SDS011;56754;51.568;5.048;2024-03-07T12:24:13;16.70;;;9.73;;
69534;SDS011;56754;51.568;5.048;2024-03-07T12:26:42;18.73;;;11.07;;
69534;SDS011;56754;51.568;5.048;2024-03-07T12:29:10;17.47;;;10.40;;
69534;SDS011;56754;51.568;5.048;2024-03-07T12:31:39;18.27;;;9.98;;
69534;SDS011;56754;51.568;5.048;2024-03-07T12:34:05;18.92;;;10.95;;
69534;SDS011;56754;51.568;5.048;2024-03-07T12:36:31;20.90;;;11.87;;
69534;SDS011;56754;51.568;5.048;2024-03-07T12:38:57;19.83;;;11.93;;
69534;SDS011;56754;51.568;5.048;2024-03-07T12:41:22;18.50;;;11.00;;
69534;SDS011;56754;51.568;5.048;2024-03-07T12:43:48;18.17;;;10.60;;
69534;SDS011;56754;51.568;5.048;2024-03-07T12:46:13;16.52;;;9.55;;
69534;SDS011;56754;51.568;5.048;2024-03-07T12:48:39;16.98;;;9.93;;
69534;SDS011;56754;51.568;5.048;2024-03-07T12:51:04;18.70;;;10.47;;
69534;SDS011;56754;51.568;5.048;2024-03-07T12:53:30;17.03;;;9.63;;
69534;SDS011;56754;51.568;5.048;2024-03-07T12:55:56;16.08;;;10.20;;
69534;SDS011;56754;51.568;5.048;2024-03-07T12:58:21;19.07;;;10.30;;
69534;SDS011;56754;51.568;5.048;2024-03-07T13:00:47;15.93;;;9.87;;
69534;SDS011;56754;51.568;5.048;2024-03-07T13:03:12;18.67;;;10.85;;
69534;SDS011;56754;51.568;5.048;2024-03-07T13:05:37;14.87;;;8.93;;
69534;SDS011;56754;51.568;5.048;2024-03-07T13:08:03;17.83;;;10.73;;
69534;SDS011;56754;51.568;5.048;2024-03-07T13:10:30;18.25;;;10.25;;
69534;SDS011;56754;51.568;5.048;2024-03-07T13:12:55;17.53;;;10.30;;
69534;SDS011;56754;51.568;5.048;2024-03-07T13:15:20;16.57;;;9.60;;
69534;SDS011;56754;51.568;5.048;2024-03-07T13:17:46;16.30;;;9.80;;
69534;SDS011;56754;51.568;5.048;2024-03-07T13:20:11;19.90;;;12.00;;
69534;SDS011;56754;51.568;5.048;2024-03-07T13:22:38;19.45;;;11.68;;
69534;SDS011;56754;51.568;5.048;2024-03-07T13:25:07;17.17;;;10.43;;
69534;SDS011;56754;51.568;5.048;2024-03-07T13:27:32;15.90;;;10.47;;
69534;SDS011;56754;51.568;5.048;2024-03-07T13:29:57;18.33;;;10.40;;
69534;SDS011;56754;51.568;5.048;2024-03-07T13:32:23;14.67;;;9.80;;
69534;SDS011;56754;51.568;5.048;2024-03-07T13:34:48;18.13;;;9.97;;
69534;SDS011;56754;51.568;5.048;2024-03-07T13:37:14;16.03;;;9.63;;
69534;SDS011;56754;51.568;5.048;2024-03-07T13:39:39;14.83;;;9.50;;
69534;SDS011;56754;51.568;5.048;2024-03-07T13:42:04;14.70;;;9.10;;
69534;SDS011;56754;51.568;5.048;2024-03-07T13:44:30;17.13;;;9.90;;
69534;SDS011;56754;51.568;5.048;2024-03-07T13:46:55;14.97;;;9.57;;
69534;SDS011;56754;51.568;5.048;2024-03-07T13:49:20;17.00;;;9.80;;
69534;SDS011;56754;51.568;5.048;2024-03-07T13:51:46;17.17;;;10.43;;
69534;SDS011;56754;51.568;5.048;2024-03-07T13:54:11;16.93;;;9.67;;
69534;SDS011;56754;51.568;5.048;2024-03-07T13:56:40;14.60;;;9.00;;
69534;SDS011;56754;51.568;5.048;2024-03-07T14:01:56;17.40;;;10.00;;
69534;SDS011;56754;51.568;5.048;2024-03-07T14:21:46;14.63;;;9.07;;
69534;SDS011;56754;51.568;5.048;2024-03-07T14:27:20;17.80;;;10.52;;
69534;SDS011;56754;51.568;5.048;2024-03-07T14:33:01;14.70;;;9.10;;
69534;SDS011;56754;51.568;5.048;2024-03-07T14:38:22;14.90;;;8.80;;
69534;SDS011;56754;51.568;5.048;2024-03-07T14:40:48;16.23;;;10.00;;
69534;SDS011;56754;51.568;5.048;2024-03-07T14:43:16;17.88;;;10.23;;
69534;SDS011;56754;51.568;5.048;2024-03-07T14:45:42;14.67;;;9.07;;
69534;SDS011;56754;51.568;5.048;2024-03-07T14:48:08;18.58;;;11.05;;
69534;SDS011;56754;51.568;5.048;2024-03-07T14:50:35;20.92;;;11.50;;
69534;SDS011;56754;51.568;5.048;2024-03-07T14:53:04;15.33;;;8.73;;
69534;SDS011;56754;51.568;5.048;2024-03-07T14:55:29;14.70;;;9.43;;
69534;SDS011;56754;51.568;5.048;2024-03-07T14:57:54;13.63;;;8.10;;
69534;SDS011;56754;51.568;5.048;2024-03-07T15:00:20;16.27;;;9.27;;
69534;SDS011;56754;51.568;5.048;2024-03-07T15:02:46;15.30;;;8.93;;
69534;SDS011;56754;51.568;5.048;2024-03-07T15:05:12;17.25;;;9.60;;
69534;SDS011;56754;51.568;5.048;2024-03-07T15:07:38;14.15;;;8.95;;